PWSweather.com
Personal Weather Stations
Station Observations
SMETHPA
Wilcat Hollow, Upper Marvin Creek, Smethport, PA 16749

Wilcat Hollow, Upper Marvin CreekSmethport, PA 16749

Lat: 41.7178, Lon: -78.5583

Elevation: 1644

Station Type: Davis Vantage Pro 2 Plus

http://www.mckeanweather.com

High Low Average
Temperature 28.0°F-2.2°C 21.6°F-5.8°C 25.5°F-3.6°C
Dew Point 26.4°F-3.1°C 19.9°F-6.7°C 23.6°F-4.7°C
Winds 5.0 mph 8.0 kmh 1.0 mph 1.6 kmh 3.0 mph ENE4.8 kmh ENE
Wind Gusts 12.0 mph19.3 kmh 3.0 mph4.8 kmh 7.0 mph11.3 kmh
Humidity 96% 87% 92%
Pressure 30.27 in1025.1 mb 29.70 in1005.8 mb -
Precipitation 0.00 in0.0 mm - -
Hour Temp Dew Point Humidity Winds Wind Gusts Pressure Precip Precip Rate Daily Precip Total
12:00 AM 27.5°F-2.5°C 24.4°F-4.2°C 88% 1.0 mph NW1.6 kmh NW 5.0 mph8.0 kmh 30.25 in1024.4 mb 0.00 in0.0 mm 0.00 in0.0 mm 0.00 in0.0 mm
12:10 AM 27.3°F-2.6°C 23.9°F-4.5°C 87% 1.0 mph NW1.6 kmh NW 8.0 mph12.9 kmh 30.26 in1024.7 mb 0.00 in0.0 mm 0.00 in0.0 mm 0.00 in0.0 mm
12:20 AM 27.1°F-2.7°C 24.0°F-4.4°C 88% 3.0 mph NNW4.8 kmh NNW 5.0 mph8.0 kmh 30.25 in1024.4 mb 0.00 in0.0 mm 0.00 in0.0 mm 0.00 in0.0 mm
12:30 AM 26.7°F-2.9°C 23.6°F-4.7°C 88% 3.0 mph NNW4.8 kmh NNW 6.0 mph9.7 kmh 30.25 in1024.4 mb 0.00 in0.0 mm 0.00 in0.0 mm 0.00 in0.0 mm
12:40 AM 26.5°F-3.1°C 23.4°F-4.8°C 88% 3.0 mph N4.8 kmh N 6.0 mph9.7 kmh 30.26 in1024.7 mb 0.00 in0.0 mm 0.00 in0.0 mm 0.00 in0.0 mm
12:50 AM 26.3°F-3.2°C 23.2°F-4.9°C 88% 2.0 mph N3.2 kmh N 7.0 mph11.3 kmh 30.26 in1024.7 mb 0.00 in0.0 mm 0.00 in0.0 mm 0.00 in0.0 mm
01:00 AM 26.0°F-3.3°C 22.9°F-5.1°C 88% 3.0 mph N4.8 kmh N 6.0 mph9.7 kmh 30.25 in1024.4 mb 0.00 in0.0 mm 0.00 in0.0 mm 0.00 in0.0 mm
01:10 AM 25.8°F-3.4°C 22.7°F-5.2°C 88% 3.0 mph N4.8 kmh N 5.0 mph8.0 kmh 30.25 in1024.4 mb 0.00 in0.0 mm 0.00 in0.0 mm 0.00 in0.0 mm
01:20 AM 25.7°F-3.5°C 22.6°F-5.2°C 88% 3.0 mph N4.8 kmh N 5.0 mph8.0 kmh 30.26 in1024.7 mb 0.00 in0.0 mm 0.00 in0.0 mm 0.00 in0.0 mm
01:30 AM 25.5°F-3.6°C 22.4°F-5.3°C 88% 2.0 mph N3.2 kmh N 6.0 mph9.7 kmh 30.25 in1024.4 mb 0.00 in0.0 mm 0.00 in0.0 mm 0.00 in0.0 mm
01:40 AM 25.4°F-3.7°C 22.3°F-5.4°C 88% 3.0 mph N4.8 kmh N 5.0 mph8.0 kmh 30.26 in1024.7 mb 0.00 in0.0 mm 0.00 in0.0 mm 0.00 in0.0 mm
01:50 AM 25.2°F-3.8°C 22.1°F-5.5°C 88% 2.0 mph N3.2 kmh N 5.0 mph8.0 kmh 30.25 in1024.4 mb 0.00 in0.0 mm 0.00 in0.0 mm 0.00 in0.0 mm
02:00 AM 25.1°F-3.8°C 22.0°F-5.6°C 88% 1.0 mph N1.6 kmh N 5.0 mph8.0 kmh 30.25 in1024.4 mb 0.00 in0.0 mm 0.00 in0.0 mm 0.00 in0.0 mm
02:10 AM 24.9°F-3.9°C 21.8°F-5.7°C 88% 2.0 mph N3.2 kmh N 3.0 mph4.8 kmh 30.26 in1024.7 mb 0.00 in0.0 mm 0.00 in0.0 mm 0.00 in0.0 mm
02:20 AM 24.9°F-3.9°C 21.8°F-5.7°C 88% 1.0 mph N1.6 kmh N 3.0 mph4.8 kmh 30.26 in1024.7 mb 0.00 in0.0 mm 0.00 in0.0 mm 0.00 in0.0 mm
02:30 AM 24.8°F-4.0°C 21.8°F-5.7°C 88% 1.0 mph N1.6 kmh N 4.0 mph6.4 kmh 30.26 in1024.7 mb 0.00 in0.0 mm 0.00 in0.0 mm 0.00 in0.0 mm
02:40 AM 24.7°F-4.1°C 21.9°F-5.6°C 89% 2.0 mph N3.2 kmh N 6.0 mph9.7 kmh 30.26 in1024.7 mb 0.00 in0.0 mm 0.00 in0.0 mm 0.00 in0.0 mm
02:50 AM 24.6°F-4.1°C 21.8°F-5.7°C 89% 3.0 mph N4.8 kmh N 6.0 mph9.7 kmh 30.26 in1024.7 mb 0.00 in0.0 mm 0.00 in0.0 mm 0.00 in0.0 mm
03:00 AM 24.4°F-4.2°C 21.4°F-5.9°C 88% 4.0 mph N6.4 kmh N 7.0 mph11.3 kmh 30.27 in1025.1 mb 0.00 in0.0 mm 0.00 in0.0 mm 0.00 in0.0 mm
03:10 AM 24.3°F-4.3°C 21.3°F-5.9°C 88% 4.0 mph NNE6.4 kmh NNE 5.0 mph8.0 kmh 30.27 in1025.1 mb 0.00 in0.0 mm 0.00 in0.0 mm 0.00 in0.0 mm
03:20 AM 24.3°F-4.3°C 21.3°F-5.9°C 88% 3.0 mph NNE4.8 kmh NNE 5.0 mph8.0 kmh 30.27 in1025.1 mb 0.00 in0.0 mm 0.00 in0.0 mm 0.00 in0.0 mm
03:30 AM 24.2°F-4.3°C 21.2°F-6.0°C 88% 3.0 mph NNE4.8 kmh NNE 6.0 mph9.7 kmh 30.27 in1025.1 mb 0.00 in0.0 mm 0.00 in0.0 mm 0.00 in0.0 mm
03:40 AM 24.1°F-4.4°C 21.1°F-6.1°C 88% 3.0 mph NNE4.8 kmh NNE 7.0 mph11.3 kmh 30.27 in1025.1 mb 0.00 in0.0 mm 0.00 in0.0 mm 0.00 in0.0 mm
03:50 AM 24.0°F-4.4°C 21.0°F-6.1°C 88% 4.0 mph NNE6.4 kmh NNE 7.0 mph11.3 kmh 30.26 in1024.7 mb 0.00 in0.0 mm 0.00 in0.0 mm 0.00 in0.0 mm
04:00 AM 23.9°F-4.5°C 20.9°F-6.2°C 88% 4.0 mph NNE6.4 kmh NNE 7.0 mph11.3 kmh 30.26 in1024.7 mb 0.00 in0.0 mm 0.00 in0.0 mm 0.00 in0.0 mm
04:10 AM 23.6°F-4.7°C 20.8°F-6.2°C 89% 4.0 mph NNE6.4 kmh NNE 8.0 mph12.9 kmh 30.25 in1024.4 mb 0.00 in0.0 mm 0.00 in0.0 mm 0.00 in0.0 mm
04:20 AM 23.3°F-4.8°C 21.1°F-6.1°C 91% 4.0 mph NNE6.4 kmh NNE 5.0 mph8.0 kmh 30.24 in1024.0 mb 0.00 in0.0 mm 0.00 in0.0 mm 0.00 in0.0 mm
04:30 AM 23.1°F-4.9°C 20.9°F-6.2°C 91% 3.0 mph NNE4.8 kmh NNE 7.0 mph11.3 kmh 30.24 in1024.0 mb 0.00 in0.0 mm 0.00 in0.0 mm 0.00 in0.0 mm
04:40 AM 22.9°F-5.1°C 20.9°F-6.2°C 92% 4.0 mph NNE6.4 kmh NNE 6.0 mph9.7 kmh 30.24 in1024.0 mb 0.00 in0.0 mm 0.00 in0.0 mm 0.00 in0.0 mm
04:50 AM 22.7°F-5.2°C 20.7°F-6.3°C 92% 4.0 mph NNE6.4 kmh NNE 7.0 mph11.3 kmh 30.24 in1024.0 mb 0.00 in0.0 mm 0.00 in0.0 mm 0.00 in0.0 mm
05:00 AM 22.5°F-5.3°C 20.5°F-6.4°C 92% 3.0 mph NNE4.8 kmh NNE 7.0 mph11.3 kmh 30.24 in1024.0 mb 0.00 in0.0 mm 0.00 in0.0 mm 0.00 in0.0 mm
05:10 AM 22.4°F-5.3°C 20.4°F-6.4°C 92% 3.0 mph NNE4.8 kmh NNE 5.0 mph8.0 kmh 30.24 in1024.0 mb 0.00 in0.0 mm 0.00 in0.0 mm 0.00 in0.0 mm
05:20 AM 22.3°F-5.4°C 20.3°F-6.5°C 92% 2.0 mph NNE3.2 kmh NNE 4.0 mph6.4 kmh 30.23 in1023.7 mb 0.00 in0.0 mm 0.00 in0.0 mm 0.00 in0.0 mm
05:30 AM 22.2°F-5.4°C 20.5°F-6.4°C 93% 2.0 mph NNE3.2 kmh NNE 5.0 mph8.0 kmh 30.23 in1023.7 mb 0.00 in0.0 mm 0.00 in0.0 mm 0.00 in0.0 mm
05:40 AM 22.1°F-5.5°C 20.4°F-6.4°C 93% 2.0 mph NNE3.2 kmh NNE 3.0 mph4.8 kmh 30.23 in1023.7 mb 0.00 in0.0 mm 0.00 in0.0 mm 0.00 in0.0 mm
05:50 AM 22.0°F-5.6°C 20.3°F-6.5°C 93% 1.0 mph NNE1.6 kmh NNE 4.0 mph6.4 kmh 30.23 in1023.7 mb 0.00 in0.0 mm 0.00 in0.0 mm 0.00 in0.0 mm
06:00 AM 21.9°F-5.6°C 20.2°F-6.6°C 93% 2.0 mph NNE3.2 kmh NNE 5.0 mph8.0 kmh 30.23 in1023.7 mb 0.00 in0.0 mm 0.00 in0.0 mm 0.00 in0.0 mm
06:10 AM 21.8°F-5.7°C 20.1°F-6.6°C 93% 3.0 mph NNE4.8 kmh NNE 6.0 mph9.7 kmh 30.23 in1023.7 mb 0.00 in0.0 mm 0.00 in0.0 mm 0.00 in0.0 mm
06:20 AM 21.8°F-5.7°C 20.1°F-6.6°C 93% 3.0 mph NNE4.8 kmh NNE 4.0 mph6.4 kmh 30.24 in1024.0 mb 0.00 in0.0 mm 0.00 in0.0 mm 0.00 in0.0 mm
06:30 AM 21.7°F-5.7°C 20.0°F-6.7°C 93% 2.0 mph NNE3.2 kmh NNE 5.0 mph8.0 kmh 30.23 in1023.7 mb 0.00 in0.0 mm 0.00 in0.0 mm 0.00 in0.0 mm
06:40 AM 21.6°F-5.8°C 19.9°F-6.7°C 93% 2.0 mph NNE3.2 kmh NNE 5.0 mph8.0 kmh 30.23 in1023.7 mb 0.00 in0.0 mm 0.00 in0.0 mm 0.00 in0.0 mm
06:50 AM 21.6°F-5.8°C 19.9°F-6.7°C 93% 2.0 mph NNE3.2 kmh NNE 4.0 mph6.4 kmh 30.24 in1024.0 mb 0.00 in0.0 mm 0.00 in0.0 mm 0.00 in0.0 mm
07:00 AM 21.6°F-5.8°C 19.9°F-6.7°C 93% 2.0 mph NNE3.2 kmh NNE 4.0 mph6.4 kmh 30.24 in1024.0 mb 0.00 in0.0 mm 0.00 in0.0 mm 0.00 in0.0 mm
07:10 AM 21.6°F-5.8°C 20.1°F-6.6°C 94% 2.0 mph NNE3.2 kmh NNE 3.0 mph4.8 kmh 30.25 in1024.4 mb 0.00 in0.0 mm 0.00 in0.0 mm 0.00 in0.0 mm
07:20 AM 21.6°F-5.8°C 19.9°F-6.7°C 93% 1.0 mph NNE1.6 kmh NNE 3.0 mph4.8 kmh 30.24 in1024.0 mb 0.00 in0.0 mm 0.00 in0.0 mm 0.00 in0.0 mm
07:30 AM 21.7°F-5.7°C 20.2°F-6.6°C 94% 2.0 mph NNE3.2 kmh NNE 4.0 mph6.4 kmh 30.24 in1024.0 mb 0.00 in0.0 mm 0.00 in0.0 mm 0.00 in0.0 mm
07:40 AM 21.7°F-5.7°C 20.2°F-6.6°C 94% 2.0 mph NNE3.2 kmh NNE 5.0 mph8.0 kmh 30.24 in1024.0 mb 0.00 in0.0 mm 0.00 in0.0 mm 0.00 in0.0 mm
07:50 AM 21.7°F-5.7°C 20.2°F-6.6°C 94% 3.0 mph NNE4.8 kmh NNE 4.0 mph6.4 kmh 30.25 in1024.4 mb 0.00 in0.0 mm 0.00 in0.0 mm 0.00 in0.0 mm
08:00 AM 21.8°F-5.7°C 20.3°F-6.5°C 94% 1.0 mph NNE1.6 kmh NNE 3.0 mph4.8 kmh 30.25 in1024.4 mb 0.00 in0.0 mm 0.00 in0.0 mm 0.00 in0.0 mm
08:10 AM 21.9°F-5.6°C 20.4°F-6.4°C 94% 2.0 mph NNE3.2 kmh NNE 4.0 mph6.4 kmh 30.25 in1024.4 mb 0.00 in0.0 mm 0.00 in0.0 mm 0.00 in0.0 mm
08:20 AM 22.0°F-5.6°C 20.5°F-6.4°C 94% 2.0 mph NNE3.2 kmh NNE 5.0 mph8.0 kmh 30.25 in1024.4 mb 0.00 in0.0 mm 0.00 in0.0 mm 0.00 in0.0 mm
08:30 AM 22.0°F-5.6°C 20.5°F-6.4°C 94% 3.0 mph NNE4.8 kmh NNE 5.0 mph8.0 kmh 30.25 in1024.4 mb 0.00 in0.0 mm 0.00 in0.0 mm 0.00 in0.0 mm
08:40 AM 22.2°F-5.4°C 20.7°F-6.3°C 94% 3.0 mph NNE4.8 kmh NNE 5.0 mph8.0 kmh 30.24 in1024.0 mb 0.00 in0.0 mm 0.00 in0.0 mm 0.00 in0.0 mm
08:50 AM 22.4°F-5.3°C 20.9°F-6.2°C 94% 3.0 mph NNE4.8 kmh NNE 5.0 mph8.0 kmh 30.24 in1024.0 mb 0.00 in0.0 mm 0.00 in0.0 mm 0.00 in0.0 mm
09:00 AM 22.6°F-5.2°C 20.9°F-6.2°C 93% 3.0 mph NNE4.8 kmh NNE 6.0 mph9.7 kmh 30.23 in1023.7 mb 0.00 in0.0 mm 0.00 in0.0 mm 0.00 in0.0 mm
09:10 AM 22.8°F-5.1°C 21.1°F-6.1°C 93% 4.0 mph NNE6.4 kmh NNE 6.0 mph9.7 kmh 30.24 in1024.0 mb 0.00 in0.0 mm 0.00 in0.0 mm 0.00 in0.0 mm
09:20 AM 23.1°F-4.9°C 21.4°F-5.9°C 93% 4.0 mph NNE6.4 kmh NNE 6.0 mph9.7 kmh 30.23 in1023.7 mb 0.00 in0.0 mm 0.00 in0.0 mm 0.00 in0.0 mm
09:30 AM 23.4°F-4.8°C 21.4°F-5.9°C 92% 3.0 mph NNE4.8 kmh NNE 8.0 mph12.9 kmh 30.23 in1023.7 mb 0.00 in0.0 mm 0.00 in0.0 mm 0.00 in0.0 mm
09:40 AM 23.6°F-4.7°C 21.6°F-5.8°C 92% 4.0 mph NNE6.4 kmh NNE 8.0 mph12.9 kmh 30.22 in1023.4 mb 0.00 in0.0 mm 0.00 in0.0 mm 0.00 in0.0 mm
09:50 AM 23.9°F-4.5°C 21.7°F-5.7°C 91% 4.0 mph NNE6.4 kmh NNE 7.0 mph11.3 kmh 30.21 in1023.0 mb 0.00 in0.0 mm 0.00 in0.0 mm 0.00 in0.0 mm
10:00 AM 24.0°F-4.4°C 21.8°F-5.7°C 91% 5.0 mph NNE8.0 kmh NNE 7.0 mph11.3 kmh 30.21 in1023.0 mb 0.00 in0.0 mm 0.00 in0.0 mm 0.00 in0.0 mm
10:10 AM 24.2°F-4.3°C 21.7°F-5.7°C 90% 4.0 mph NNE6.4 kmh NNE 8.0 mph12.9 kmh 30.21 in1023.0 mb 0.00 in0.0 mm 0.00 in0.0 mm 0.00 in0.0 mm
10:20 AM 24.3°F-4.3°C 21.8°F-5.7°C 90% 4.0 mph NNE6.4 kmh NNE 8.0 mph12.9 kmh 30.21 in1023.0 mb 0.00 in0.0 mm 0.00 in0.0 mm 0.00 in0.0 mm
10:30 AM 24.4°F-4.2°C 21.9°F-5.6°C 90% 5.0 mph N8.0 kmh N 9.0 mph14.5 kmh 30.19 in1022.4 mb 0.00 in0.0 mm 0.00 in0.0 mm 0.00 in0.0 mm
10:40 AM 24.5°F-4.2°C 21.7°F-5.7°C 89% 5.0 mph N8.0 kmh N 7.0 mph11.3 kmh 30.20 in1022.7 mb 0.00 in0.0 mm 0.00 in0.0 mm 0.00 in0.0 mm
10:50 AM 24.6°F-4.1°C 21.8°F-5.7°C 89% 4.0 mph N6.4 kmh N 9.0 mph14.5 kmh 30.20 in1022.7 mb 0.00 in0.0 mm 0.00 in0.0 mm 0.00 in0.0 mm
11:00 AM 24.7°F-4.1°C 21.9°F-5.6°C 89% 4.0 mph NNE6.4 kmh NNE 7.0 mph11.3 kmh 30.20 in1022.7 mb 0.00 in0.0 mm 0.00 in0.0 mm 0.00 in0.0 mm
11:10 AM 24.8°F-4.0°C 22.0°F-5.6°C 89% 3.0 mph N4.8 kmh N 5.0 mph8.0 kmh 30.19 in1022.4 mb 0.00 in0.0 mm 0.00 in0.0 mm 0.00 in0.0 mm
11:20 AM 25.0°F-3.9°C 22.2°F-5.4°C 89% 3.0 mph N4.8 kmh N 7.0 mph11.3 kmh 30.18 in1022.0 mb 0.00 in0.0 mm 0.00 in0.0 mm 0.00 in0.0 mm
11:30 AM 25.1°F-3.8°C 22.6°F-5.2°C 90% 4.0 mph N6.4 kmh N 8.0 mph12.9 kmh 30.17 in1021.7 mb 0.00 in0.0 mm 0.00 in0.0 mm 0.00 in0.0 mm
11:40 AM 25.1°F-3.8°C 22.6°F-5.2°C 90% 4.0 mph N6.4 kmh N 9.0 mph14.5 kmh 30.16 in1021.3 mb 0.00 in0.0 mm 0.00 in0.0 mm 0.00 in0.0 mm
11:50 AM 25.2°F-3.8°C 22.7°F-5.2°C 90% 4.0 mph N6.4 kmh N 7.0 mph11.3 kmh 30.16 in1021.3 mb 0.00 in0.0 mm 0.00 in0.0 mm 0.00 in0.0 mm
12:00 PM 25.4°F-3.7°C 22.9°F-5.1°C 90% 3.0 mph N4.8 kmh N 7.0 mph11.3 kmh 30.16 in1021.3 mb 0.00 in0.0 mm 0.00 in0.0 mm 0.00 in0.0 mm
12:10 PM 25.5°F-3.6°C 23.2°F-4.9°C 91% 4.0 mph NNE6.4 kmh NNE 7.0 mph11.3 kmh 30.15 in1021.0 mb 0.00 in0.0 mm 0.00 in0.0 mm 0.00 in0.0 mm
12:20 PM 25.8°F-3.4°C 23.5°F-4.7°C 91% 4.0 mph N6.4 kmh N 8.0 mph12.9 kmh 30.13 in1020.3 mb 0.00 in0.0 mm 0.00 in0.0 mm 0.00 in0.0 mm
12:30 PM 26.1°F-3.3°C 24.1°F-4.4°C 92% 4.0 mph N6.4 kmh N 9.0 mph14.5 kmh 30.12 in1020.0 mb 0.00 in0.0 mm 0.00 in0.0 mm 0.00 in0.0 mm
12:40 PM 26.2°F-3.2°C 24.2°F-4.3°C 92% 4.0 mph N6.4 kmh N 8.0 mph12.9 kmh 30.11 in1019.6 mb 0.00 in0.0 mm 0.00 in0.0 mm 0.00 in0.0 mm
12:50 PM 26.3°F-3.2°C 24.3°F-4.3°C 92% 4.0 mph N6.4 kmh N 9.0 mph14.5 kmh 30.10 in1019.3 mb 0.00 in0.0 mm 0.00 in0.0 mm 0.00 in0.0 mm
01:00 PM 26.5°F-3.1°C 24.8°F-4.0°C 93% 3.0 mph N4.8 kmh N 7.0 mph11.3 kmh 30.09 in1019.0 mb 0.00 in0.0 mm 0.00 in0.0 mm 0.00 in0.0 mm
01:10 PM 26.6°F-3.0°C 24.8°F-4.0°C 93% 3.0 mph N4.8 kmh N 8.0 mph12.9 kmh 30.09 in1019.0 mb 0.00 in0.0 mm 0.00 in0.0 mm 0.00 in0.0 mm
01:20 PM 26.7°F-2.9°C 24.9°F-3.9°C 93% 4.0 mph N6.4 kmh N 7.0 mph11.3 kmh 30.08 in1018.6 mb 0.00 in0.0 mm 0.00 in0.0 mm 0.00 in0.0 mm
01:30 PM 27.0°F-2.8°C 25.5°F-3.6°C 94% 3.0 mph N4.8 kmh N 6.0 mph9.7 kmh 30.07 in1018.3 mb 0.00 in0.0 mm 0.00 in0.0 mm 0.00 in0.0 mm
01:40 PM 27.1°F-2.7°C 25.3°F-3.7°C 93% 4.0 mph N6.4 kmh N 8.0 mph12.9 kmh 30.07 in1018.3 mb 0.00 in0.0 mm 0.00 in0.0 mm 0.00 in0.0 mm
01:50 PM 27.4°F-2.6°C 25.9°F-3.4°C 94% 4.0 mph N6.4 kmh N 9.0 mph14.5 kmh 30.07 in1018.3 mb 0.00 in0.0 mm 0.00 in0.0 mm 0.00 in0.0 mm
02:00 PM 27.4°F-2.6°C 25.6°F-3.6°C 93% 5.0 mph NNE8.0 kmh NNE 10.0 mph16.1 kmh 30.04 in1017.3 mb 0.00 in0.0 mm 0.00 in0.0 mm 0.00 in0.0 mm
02:20 PM 27.6°F-2.4°C 25.8°F-3.4°C 93% 5.0 mph N8.0 kmh N 10.0 mph16.1 kmh 30.03 in1016.9 mb 0.00 in0.0 mm 0.00 in0.0 mm 0.00 in0.0 mm
02:30 PM 27.6°F-2.4°C 25.8°F-3.4°C 93% 4.0 mph N6.4 kmh N 10.0 mph16.1 kmh 30.02 in1016.6 mb 0.00 in0.0 mm 0.00 in0.0 mm 0.00 in0.0 mm
02:40 PM 27.7°F-2.4°C 25.9°F-3.4°C 93% 4.0 mph NNE6.4 kmh NNE 11.0 mph17.7 kmh 30.02 in1016.6 mb 0.00 in0.0 mm 0.00 in0.0 mm 0.00 in0.0 mm
02:50 PM 27.8°F-2.3°C 26.0°F-3.3°C 93% 4.0 mph N6.4 kmh N 11.0 mph17.7 kmh 30.01 in1016.3 mb 0.00 in0.0 mm 0.00 in0.0 mm 0.00 in0.0 mm
03:00 PM 27.9°F-2.3°C 26.1°F-3.3°C 93% 3.0 mph N4.8 kmh N 8.0 mph12.9 kmh 30.01 in1016.3 mb 0.00 in0.0 mm 0.00 in0.0 mm 0.00 in0.0 mm
03:10 PM 27.9°F-2.3°C 26.1°F-3.3°C 93% 2.0 mph NNE3.2 kmh NNE 7.0 mph11.3 kmh 30.01 in1016.3 mb 0.00 in0.0 mm 0.00 in0.0 mm 0.00 in0.0 mm
03:20 PM 27.8°F-2.3°C 26.0°F-3.3°C 93% 2.0 mph N3.2 kmh N 7.0 mph11.3 kmh 30.00 in1015.9 mb 0.00 in0.0 mm 0.00 in0.0 mm 0.00 in0.0 mm
03:30 PM 27.9°F-2.3°C 26.1°F-3.3°C 93% 3.0 mph N4.8 kmh N 9.0 mph14.5 kmh 30.00 in1015.9 mb 0.00 in0.0 mm 0.00 in0.0 mm 0.00 in0.0 mm
03:40 PM 27.9°F-2.3°C 25.9°F-3.4°C 92% 3.0 mph N4.8 kmh N 6.0 mph9.7 kmh 30.00 in1015.9 mb 0.00 in0.0 mm 0.00 in0.0 mm 0.00 in0.0 mm
03:50 PM 28.0°F-2.2°C 26.0°F-3.3°C 92% 2.0 mph NNE3.2 kmh NNE 8.0 mph12.9 kmh 29.99 in1015.6 mb 0.00 in0.0 mm 0.00 in0.0 mm 0.00 in0.0 mm
04:00 PM 28.0°F-2.2°C 26.0°F-3.3°C 92% 3.0 mph NE4.8 kmh NE 7.0 mph11.3 kmh 29.99 in1015.6 mb 0.00 in0.0 mm 0.00 in0.0 mm 0.00 in0.0 mm
04:10 PM 28.0°F-2.2°C 26.0°F-3.3°C 92% 2.0 mph NNE3.2 kmh NNE 8.0 mph12.9 kmh 29.99 in1015.6 mb 0.00 in0.0 mm 0.00 in0.0 mm 0.00 in0.0 mm
04:20 PM 28.0°F-2.2°C 26.2°F-3.2°C 93% 2.0 mph NNE3.2 kmh NNE 5.0 mph8.0 kmh 29.99 in1015.6 mb 0.00 in0.0 mm 0.00 in0.0 mm 0.00 in0.0 mm
04:30 PM 27.9°F-2.3°C 26.1°F-3.3°C 93% 3.0 mph NNE4.8 kmh NNE 6.0 mph9.7 kmh 29.99 in1015.6 mb 0.00 in0.0 mm 0.00 in0.0 mm 0.00 in0.0 mm
04:40 PM 27.8°F-2.3°C 26.0°F-3.3°C 93% 3.0 mph NNE4.8 kmh NNE 6.0 mph9.7 kmh 29.98 in1015.2 mb 0.00 in0.0 mm 0.00 in0.0 mm 0.00 in0.0 mm
04:50 PM 27.8°F-2.3°C 26.0°F-3.3°C 93% 3.0 mph NNE4.8 kmh NNE 6.0 mph9.7 kmh 29.97 in1014.9 mb 0.00 in0.0 mm 0.00 in0.0 mm 0.00 in0.0 mm
05:00 PM 27.8°F-2.3°C 26.3°F-3.2°C 94% 3.0 mph NNE4.8 kmh NNE 6.0 mph9.7 kmh 29.96 in1014.6 mb 0.00 in0.0 mm 0.00 in0.0 mm 0.00 in0.0 mm
05:10 PM 27.7°F-2.4°C 26.2°F-3.2°C 94% 3.0 mph N4.8 kmh N 7.0 mph11.3 kmh 29.95 in1014.2 mb 0.00 in0.0 mm 0.00 in0.0 mm 0.00 in0.0 mm
05:20 PM 27.7°F-2.4°C 26.2°F-3.2°C 94% 4.0 mph NNE6.4 kmh NNE 11.0 mph17.7 kmh 29.95 in1014.2 mb 0.00 in0.0 mm 0.00 in0.0 mm 0.00 in0.0 mm
05:30 PM 27.7°F-2.4°C 26.2°F-3.2°C 94% 4.0 mph NNE6.4 kmh NNE 7.0 mph11.3 kmh 29.95 in1014.2 mb 0.00 in0.0 mm 0.00 in0.0 mm 0.00 in0.0 mm
05:40 PM 27.6°F-2.4°C 26.1°F-3.3°C 94% 4.0 mph NNE6.4 kmh NNE 9.0 mph14.5 kmh 29.94 in1013.9 mb 0.00 in0.0 mm 0.00 in0.0 mm 0.00 in0.0 mm
05:50 PM 27.6°F-2.4°C 26.1°F-3.3°C 94% 4.0 mph NNE6.4 kmh NNE 8.0 mph12.9 kmh 29.93 in1013.5 mb 0.00 in0.0 mm 0.00 in0.0 mm 0.00 in0.0 mm
06:00 PM 27.6°F-2.4°C 26.1°F-3.3°C 94% 4.0 mph N6.4 kmh N 9.0 mph14.5 kmh 29.93 in1013.5 mb 0.00 in0.0 mm 0.00 in0.0 mm 0.00 in0.0 mm
06:10 PM 27.6°F-2.4°C 26.4°F-3.1°C 95% 4.0 mph N6.4 kmh N 8.0 mph12.9 kmh 29.93 in1013.5 mb 0.00 in0.0 mm 0.00 in0.0 mm 0.00 in0.0 mm
06:20 PM 27.5°F-2.5°C 26.3°F-3.2°C 95% 4.0 mph NNE6.4 kmh NNE 9.0 mph14.5 kmh 29.92 in1013.2 mb 0.00 in0.0 mm 0.00 in0.0 mm 0.00 in0.0 mm
06:30 PM 27.5°F-2.5°C 26.3°F-3.2°C 95% 4.0 mph NNE6.4 kmh NNE 9.0 mph14.5 kmh 29.92 in1013.2 mb 0.00 in0.0 mm 0.00 in0.0 mm 0.00 in0.0 mm
06:40 PM 27.5°F-2.5°C 26.3°F-3.2°C 95% 5.0 mph NNE8.0 kmh NNE 9.0 mph14.5 kmh 29.91 in1012.9 mb 0.00 in0.0 mm 0.00 in0.0 mm 0.00 in0.0 mm
06:50 PM 27.5°F-2.5°C 26.3°F-3.2°C 95% 4.0 mph NNE6.4 kmh NNE 12.0 mph19.3 kmh 29.91 in1012.9 mb 0.00 in0.0 mm 0.00 in0.0 mm 0.00 in0.0 mm
07:00 PM 27.4°F-2.6°C 26.2°F-3.2°C 95% 5.0 mph N8.0 kmh N 10.0 mph16.1 kmh 29.90 in1012.5 mb 0.00 in0.0 mm 0.00 in0.0 mm 0.00 in0.0 mm
07:10 PM 27.4°F-2.6°C 26.2°F-3.2°C 95% 4.0 mph NNE6.4 kmh NNE 9.0 mph14.5 kmh 29.89 in1012.2 mb 0.00 in0.0 mm 0.00 in0.0 mm 0.00 in0.0 mm
07:20 PM 27.3°F-2.6°C 26.1°F-3.3°C 95% 4.0 mph N6.4 kmh N 9.0 mph14.5 kmh 29.88 in1011.9 mb 0.00 in0.0 mm 0.00 in0.0 mm 0.00 in0.0 mm
07:30 PM 27.3°F-2.6°C 26.1°F-3.3°C 95% 5.0 mph N8.0 kmh N 11.0 mph17.7 kmh 29.88 in1011.9 mb 0.00 in0.0 mm 0.00 in0.0 mm 0.00 in0.0 mm
07:40 PM 27.3°F-2.6°C 26.1°F-3.3°C 95% 5.0 mph NNE8.0 kmh NNE 12.0 mph19.3 kmh 29.88 in1011.9 mb 0.00 in0.0 mm 0.00 in0.0 mm 0.00 in0.0 mm
07:50 PM 27.3°F-2.6°C 26.1°F-3.3°C 95% 5.0 mph N8.0 kmh N 10.0 mph16.1 kmh 29.86 in1011.2 mb 0.00 in0.0 mm 0.00 in0.0 mm 0.00 in0.0 mm
08:00 PM 27.2°F-2.7°C 26.0°F-3.3°C 95% 5.0 mph N8.0 kmh N 7.0 mph11.3 kmh 29.86 in1011.2 mb 0.00 in0.0 mm 0.00 in0.0 mm 0.00 in0.0 mm
08:10 PM 27.2°F-2.7°C 26.0°F-3.3°C 95% 5.0 mph NNE8.0 kmh NNE 10.0 mph16.1 kmh 29.85 in1010.8 mb 0.00 in0.0 mm 0.00 in0.0 mm 0.00 in0.0 mm
08:20 PM 27.2°F-2.7°C 26.0°F-3.3°C 95% 5.0 mph NNE8.0 kmh NNE 9.0 mph14.5 kmh 29.84 in1010.5 mb 0.00 in0.0 mm 0.00 in0.0 mm 0.00 in0.0 mm
08:30 PM 27.2°F-2.7°C 26.0°F-3.3°C 95% 4.0 mph N6.4 kmh N 10.0 mph16.1 kmh 29.83 in1010.2 mb 0.00 in0.0 mm 0.00 in0.0 mm 0.00 in0.0 mm
08:40 PM 27.2°F-2.7°C 26.2°F-3.2°C 96% 4.0 mph N6.4 kmh N 7.0 mph11.3 kmh 29.83 in1010.2 mb 0.00 in0.0 mm 0.00 in0.0 mm 0.00 in0.0 mm
08:50 PM 27.2°F-2.7°C 26.2°F-3.2°C 96% 4.0 mph N6.4 kmh N 10.0 mph16.1 kmh 29.82 in1009.8 mb 0.00 in0.0 mm 0.00 in0.0 mm 0.00 in0.0 mm
09:00 PM 27.3°F-2.6°C 26.3°F-3.2°C 96% 4.0 mph NNE6.4 kmh NNE 9.0 mph14.5 kmh 29.81 in1009.5 mb 0.00 in0.0 mm 0.00 in0.0 mm 0.00 in0.0 mm
09:10 PM 27.3°F-2.6°C 26.3°F-3.2°C 96% 5.0 mph NNE8.0 kmh NNE 10.0 mph16.1 kmh 29.81 in1009.5 mb 0.00 in0.0 mm 0.00 in0.0 mm 0.00 in0.0 mm
09:20 PM 27.3°F-2.6°C 26.3°F-3.2°C 96% 4.0 mph NNE6.4 kmh NNE 7.0 mph11.3 kmh 29.81 in1009.5 mb 0.00 in0.0 mm 0.00 in0.0 mm 0.00 in0.0 mm
09:30 PM 27.3°F-2.6°C 26.3°F-3.2°C 96% 3.0 mph NNE4.8 kmh NNE 7.0 mph11.3 kmh 29.80 in1009.1 mb 0.00 in0.0 mm 0.00 in0.0 mm 0.00 in0.0 mm
09:40 PM 27.3°F-2.6°C 26.3°F-3.2°C 96% 4.0 mph NNE6.4 kmh NNE 8.0 mph12.9 kmh 29.79 in1008.8 mb 0.00 in0.0 mm 0.00 in0.0 mm 0.00 in0.0 mm
09:50 PM 27.3°F-2.6°C 26.3°F-3.2°C 96% 3.0 mph N4.8 kmh N 6.0 mph9.7 kmh 29.79 in1008.8 mb 0.00 in0.0 mm 0.00 in0.0 mm 0.00 in0.0 mm
10:00 PM 27.2°F-2.7°C 26.2°F-3.2°C 96% 3.0 mph NNE4.8 kmh NNE 8.0 mph12.9 kmh 29.79 in1008.8 mb 0.00 in0.0 mm 0.00 in0.0 mm 0.00 in0.0 mm
10:10 PM 27.2°F-2.7°C 26.2°F-3.2°C 96% 3.0 mph N4.8 kmh N 6.0 mph9.7 kmh 29.79 in1008.8 mb 0.00 in0.0 mm 0.00 in0.0 mm 0.00 in0.0 mm
10:20 PM 27.2°F-2.7°C 26.2°F-3.2°C 96% 3.0 mph N4.8 kmh N 6.0 mph9.7 kmh 29.77 in1008.1 mb 0.00 in0.0 mm 0.00 in0.0 mm 0.00 in0.0 mm
10:30 PM 27.2°F-2.7°C 26.2°F-3.2°C 96% 3.0 mph N4.8 kmh N 8.0 mph12.9 kmh 29.76 in1007.8 mb 0.00 in0.0 mm 0.00 in0.0 mm 0.00 in0.0 mm
10:40 PM 27.2°F-2.7°C 26.2°F-3.2°C 96% 4.0 mph NNE6.4 kmh NNE 9.0 mph14.5 kmh 29.75 in1007.5 mb 0.00 in0.0 mm 0.00 in0.0 mm 0.00 in0.0 mm
10:50 PM 27.1°F-2.7°C 26.1°F-3.3°C 96% 4.0 mph NNE6.4 kmh NNE 8.0 mph12.9 kmh 29.75 in1007.5 mb 0.00 in0.0 mm 0.00 in0.0 mm 0.00 in0.0 mm
11:00 PM 27.0°F-2.8°C 26.0°F-3.3°C 96% 4.0 mph NNE6.4 kmh NNE 10.0 mph16.1 kmh 29.75 in1007.5 mb 0.00 in0.0 mm 0.00 in0.0 mm 0.00 in0.0 mm
11:10 PM 27.0°F-2.8°C 26.0°F-3.3°C 96% 3.0 mph N4.8 kmh N 9.0 mph14.5 kmh 29.74 in1007.1 mb 0.00 in0.0 mm 0.00 in0.0 mm 0.00 in0.0 mm
11:20 PM 27.0°F-2.8°C 26.0°F-3.3°C 96% 4.0 mph NNE6.4 kmh NNE 7.0 mph11.3 kmh 29.73 in1006.8 mb 0.00 in0.0 mm 0.00 in0.0 mm 0.00 in0.0 mm
11:30 PM 26.9°F-2.8°C 25.9°F-3.4°C 96% 3.0 mph NNE4.8 kmh NNE 8.0 mph12.9 kmh 29.72 in1006.4 mb 0.00 in0.0 mm 0.00 in0.0 mm 0.00 in0.0 mm
11:40 PM 26.9°F-2.8°C 25.9°F-3.4°C 96% 4.0 mph N6.4 kmh N 10.0 mph16.1 kmh 29.70 in1005.8 mb 0.00 in0.0 mm 0.00 in0.0 mm 0.00 in0.0 mm
11:50 PM 26.9°F-2.8°C 25.9°F-3.4°C 96% 5.0 mph N8.0 kmh N 8.0 mph12.9 kmh 29.70 in1005.8 mb 0.00 in0.0 mm 0.00 in0.0 mm 0.00 in0.0 mm